Time;durP1;ratioP1;P1;durP2;ratioP2;P2;SDS_P1;SDS_P2;PMS_P1;PMS_P2;Temp;Humidity;BMP_temperature;BMP_pressure;BME280_temperature;BME280_humidity;BME280_pressure;Samples;Min_cycle;Max_cycle;Signal;HPM_P1;HPM_P2
2022/11/25 00:00:12;;;;;;;26.47;5.60;;;;;;;9.10;92.57;100746.94;5281792;28;20033;-73
2022/11/25 00:02:44;;;;;;;22.80;4.50;;;;;;;9.10;92.21;100746.94;5283929;28;20037;-72
2022/11/25 00:05:15;;;;;;;16.33;4.07;;;;;;;9.07;92.66;100745.22;5283813;28;20032;-72
2022/11/25 00:07:46;;;;;;;16.67;4.17;;;;;;;9.06;92.89;100756.50;5283270;28;20106;-73
2022/11/25 00:10:18;;;;;;;14.47;3.67;;;;;;;9.06;93.01;100745.22;5283645;28;20033;-73
2022/11/25 00:12:49;;;;;;;20.67;6.30;;;;;;;9.04;93.38;100754.78;5283288;28;20035;-72
2022/11/25 00:15:20;;;;;;;19.23;4.80;;;;;;;9.07;93.55;100749.56;5283543;28;20036;-73
2022/11/25 00:17:52;;;;;;;22.27;6.53;;;;;;;9.08;93.58;100738.28;5283262;28;20048;-73
2022/11/25 00:20:23;;;;;;;15.77;4.13;;;;;;;9.09;93.59;100742.63;5284119;28;20024;-73
2022/11/25 00:22:55;;;;;;;17.80;3.70;;;;;;;9.08;93.72;100735.69;5283032;28;20033;-73
2022/11/25 00:25:26;;;;;;;15.67;4.60;;;;;;;9.09;94.03;100729.63;5283099;28;20368;-73
2022/11/25 00:27:57;;;;;;;18.33;4.73;;;;;;;9.07;93.66;100727.03;5283383;28;20120;-73
2022/11/25 00:30:29;;;;;;;19.87;4.43;;;;;;;9.07;93.74;100727.03;5283577;28;20068;-73
2022/11/25 00:33:00;;;;;;;20.03;4.27;;;;;;;9.07;93.98;100723.56;5283736;28;20391;-73
2022/11/25 00:35:34;;;;;;;21.57;4.10;;;;;;;9.05;94.33;100727.94;5283259;28;20086;-73
2022/11/25 00:38:05;;;;;;;17.80;4.35;;;;;;;9.03;94.33;100730.53;5283266;28;20031;-74
2022/11/25 00:40:36;;;;;;;12.10;3.63;;;;;;;9.03;94.33;100724.44;5283043;28;20108;-73
2022/11/25 00:45:58;;;;;;;15.25;3.90;;;;;;;8.97;94.64;100721.88;5283421;28;20492;-73
2022/11/25 00:48:29;;;;;;;15.67;4.30;;;;;;;8.99;94.84;100717.56;5283767;28;20037;-73
2022/11/25 00:51:01;;;;;;;20.27;4.93;;;;;;;8.95;94.97;100711.50;5282906;28;20480;-73
2022/11/25 00:53:32;;;;;;;17.30;3.70;;;;;;;8.93;95.33;100721.06;5283070;28;20119;-71
2022/11/25 00:56:13;;;;;;;15.63;4.77;;;;;;;8.93;95.46;100718.47;5281997;28;20467;-74
2022/11/25 00:58:44;;;;;;;15.18;3.88;;;;;;;8.97;95.73;100722.78;5283583;28;20409;-72
2022/11/25 01:01:16;;;;;;;20.43;4.43;;;;;;;9.02;95.47;100733.16;5282539;28;20032;-72
2022/11/25 01:03:49;;;;;;;17.50;4.87;;;;;;;8.99;95.40;100731.41;5283008;28;20033;-72
2022/11/25 01:06:20;;;;;;;;;;;;;;;9.05;95.39;100727.94;5282960;28;20069;-72
2022/11/25 01:08:52;;;;;;;17.42;5.28;;;;;;;9.01;95.59;100734.00;5283092;28;19908;-71
2022/11/25 01:11:24;;;;;;;16.00;4.60;;;;;;;8.99;95.89;100723.63;5281772;28;20044;-72
2022/11/25 01:13:57;;;;;;;15.90;4.23;;;;;;;9.03;95.63;100724.44;5286138;28;20333;-72
2022/11/25 01:16:29;;;;;;;22.60;4.78;;;;;;;9.02;95.83;100734.00;5286631;28;20033;-72
2022/11/25 01:19:01;;;;;;;17.80;4.70;;;;;;;9.04;95.89;100727.03;5287763;28;20059;-72
2022/11/25 01:21:33;;;;;;;17.88;4.68;;;;;;;9.05;95.98;100728.78;5286571;28;20044;-72
2022/11/25 01:24:06;;;;;;;17.85;4.28;;;;;;;9.09;95.72;100740.88;5287049;28;20037;-71
2022/11/25 01:26:37;;;;;;;17.35;4.68;;;;;;;9.12;95.79;100738.25;5287022;28;20028;-72
2022/11/25 01:29:17;;;;;;;17.77;5.00;;;;;;;9.11;95.82;100735.66;5286138;28;20380;-75
2022/11/25 01:31:48;;;;;;;15.15;4.05;;;;;;;9.13;95.95;100742.59;5286374;28;20102;-72
2022/11/25 01:34:23;;;;;;;16.63;5.17;;;;;;;9.15;95.70;100746.91;5286631;28;20041;-72
2022/11/25 01:36:54;;;;;;;13.48;4.13;;;;;;;9.20;95.58;100752.94;5286360;28;20032;-72
2022/11/25 01:39:25;;;;;;;20.07;5.20;;;;;;;9.19;95.86;100751.22;5286295;28;20028;-72
2022/11/25 01:41:57;;;;;;;13.60;5.43;;;;;;;9.21;95.66;100752.06;5286434;28;20032;-72
2022/11/25 01:44:30;;;;;;;19.57;4.70;;;;;;;9.23;95.53;100763.31;5286065;28;20082;-74
2022/11/25 01:47:23;;;;;;;15.85;4.32;;;;;;;9.21;95.54;100754.66;5286694;28;20075;-73
2022/11/25 01:50:08;;;;;;;20.17;6.10;;;;;;;9.23;95.69;100765.94;5286100;28;20471;-72
2022/11/25 01:52:44;;;;;;;14.40;4.47;;;;;;;9.24;95.79;100780.63;5285331;28;20061;-72
2022/11/25 01:55:23;;;;;;;16.10;4.22;;;;;;;9.22;96.15;100785.84;5286091;28;20039;-72
2022/11/25 01:58:03;;;;;;;20.55;5.28;;;;;;;9.21;96.33;100783.25;5285617;28;20115;-72
2022/11/25 02:00:36;;;;;;;22.10;4.30;;;;;;;9.18;96.30;100781.56;5286455;28;20032;-72
2022/11/25 02:03:08;;;;;;;;;;;;;;;9.25;96.33;100796.25;5285851;28;20442;-72
2022/11/25 02:06:02;;;;;;;14.20;4.03;;;;;;;9.24;96.53;100802.34;5285506;28;20008;-72
2022/11/25 02:08:33;;;;;;;13.77;4.20;;;;;;;9.25;96.30;100804.03;5285772;28;20124;-72
2022/11/25 02:11:05;;;;;;;12.37;3.83;;;;;;;9.26;96.59;100797.13;5285688;28;20379;-72
2022/11/25 02:13:37;;;;;;;21.63;4.60;;;;;;;9.29;96.24;100800.56;5285276;28;20353;-72
2022/11/25 02:16:08;;;;;;;20.13;3.83;;;;;;;9.26;96.41;100808.38;5285661;28;20094;-72
2022/11/25 02:18:40;;;;;;;18.03;4.63;;;;;;;9.26;96.82;100804.94;5267430;28;20049;-73
2022/11/25 02:21:16;;;;;;;15.10;3.87;;;;;;;9.22;97.21;100811.00;5285058;28;20041;-72
2022/11/25 02:23:58;;;;;;;16.42;3.88;;;;;;;9.22;97.25;100813.59;5284560;28;20120;-73
2022/11/25 02:26:30;;;;;;;17.08;3.92;;;;;;;9.22;97.86;100811.88;5285772;28;20460;-73
2022/11/25 02:29:01;;;;;;;13.50;4.10;;;;;;;9.16;98.99;100818.84;5285311;28;20082;-73
2022/11/25 02:31:33;;;;;;;17.23;4.57;;;;;;;9.09;99.41;100813.69;5285041;28;20025;-73
2022/11/25 02:34:04;;;;;;;16.87;4.00;;;;;;;9.02;100.00;100816.34;5285248;28;20094;-73
2022/11/25 02:36:36;;;;;;;22.03;5.20;;;;;;;8.97;100.00;100823.28;5285732;28;20048;-73
2022/11/25 02:39:07;;;;;;;14.80;4.17;;;;;;;8.85;100.00;100817.28;5285173;28;20036;-73
2022/11/25 02:41:53;;;;;;;18.67;4.93;;;;;;;8.68;100.00;100830.38;5285648;28;20464;-73
2022/11/25 02:44:24;;;;;;;13.80;4.00;;;;;;;8.61;100.00;100833.84;5285125;28;20035;-73
2022/11/25 02:46:56;;;;;;;20.17;4.57;;;;;;;8.49;100.00;100837.38;5290668;28;20066;-74
2022/11/25 02:49:27;;;;;;;18.13;4.30;;;;;;;8.40;100.00;100830.44;5291424;28;20061;-74
2022/11/25 02:51:58;;;;;;;27.83;5.63;;;;;;;8.33;100.00;100818.34;5285287;28;20055;-74
2022/11/25 02:54:30;;;;;;;17.07;4.80;;;;;;;8.32;100.00;100819.22;5284708;28;20149;-74
2022/11/25 02:57:01;;;;;;;18.23;4.17;;;;;;;8.26;100.00;100808.84;5284947;28;20376;-74
2022/11/25 02:59:32;;;;;;;19.57;4.57;;;;;;;8.27;100.00;100799.31;5284976;28;20029;-74
2022/11/25 03:02:04;;;;;;;17.10;4.30;;;;;;;8.26;100.00;100784.59;5284691;28;20043;-74
2022/11/25 03:04:35;;;;;;;18.03;3.80;;;;;;;8.21;100.00;100771.63;5284256;28;20038;-73
2022/11/25 03:07:07;;;;;;;19.67;4.10;;;;;;;8.17;100.00;100744.81;5284616;28;20388;-73
2022/11/25 03:09:38;;;;;;;19.13;4.10;;;;;;;8.15;100.00;100751.75;5266607;28;20025;-73
2022/11/25 03:12:18;;;;;;;15.03;3.90;;;;;;;8.11;100.00;100749.16;5284487;28;20055;-73
2022/11/25 03:14:50;;;;;;;20.10;3.58;;;;;;;8.07;100.00;100755.25;5284441;28;20047;-74
2022/11/25 03:17:21;;;;;;;10.33;3.10;;;;;;;8.04;100.00;100776.88;5282417;28;20471;-74
2022/11/25 03:19:53;;;;;;;14.70;4.33;;;;;;;7.99;100.00;100781.22;5284526;28;20479;-74
2022/11/25 03:22:24;;;;;;;13.67;4.00;;;;;;;7.96;100.00;100792.47;5284235;28;20072;-73
2022/11/25 03:24:56;;;;;;;16.53;5.10;;;;;;;7.94;100.00;100786.41;5284360;28;20025;-73
2022/11/25 03:27:27;;;;;;;17.20;3.27;;;;;;;7.95;100.00;100766.50;5284169;28;20036;-74
2022/11/25 03:29:59;;;;;;;14.17;3.57;;;;;;;7.94;100.00;100770.84;5284418;28;20024;-74
2022/11/25 03:32:30;;;;;;;18.60;4.43;;;;;;;7.89;100.00;100777.78;5284207;28;20032;-74
2022/11/25 03:35:02;;;;;;;14.27;3.50;;;;;;;7.86;100.00;100806.34;5282154;28;20043;-73
2022/11/25 03:37:33;;;;;;;7.10;2.77;;;;;;;7.85;100.00;100826.22;5282197;28;20559;-73
2022/11/25 03:40:06;;;;;;;12.00;4.00;;;;;;;7.82;100.00;100822.75;5284235;28;20034;-73
2022/11/25 03:42:38;;;;;;;10.13;2.72;;;;;;;7.78;100.00;100827.09;5283347;28;20029;-74
2022/11/25 03:45:12;;;;;;;7.70;2.57;;;;;;;7.80;100.00;100827.09;5284298;28;20082;-74
2022/11/25 03:47:44;;;;;;;13.90;2.70;;;;;;;7.77;100.00;100829.69;5283643;28;20028;-73
2022/11/25 03:50:15;;;;;;;13.87;3.23;;;;;;;7.78;100.00;100826.25;5283689;28;20029;-73
2022/11/25 03:52:46;;;;;;;6.93;2.07;;;;;;;7.75;100.00;100828.84;5283662;28;20051;-73
2022/11/25 03:55:18;;;;;;;10.30;2.30;;;;;;;7.74;100.00;100830.53;5283904;28;20028;-73
2022/11/25 03:57:49;;;;;;;11.57;2.27;;;;;;;7.74;100.00;100847.84;5284063;28;20149;-73
2022/11/25 04:00:21;;;;;;;8.57;2.90;;;;;;;7.70;100.00;100835.75;5283760;28;20038;-73
2022/11/25 04:02:52;;;;;;;10.00;2.57;;;;;;;7.71;100.00;100840.06;5283951;28;20115;-72
2022/11/25 04:05:23;;;;;;;8.30;2.20;;;;;;;7.68;100.00;100848.72;5283293;28;20072;-73
2022/11/25 04:07:55;;;;;;;10.10;2.27;;;;;;;7.69;100.00;100849.59;5283807;28;20024;-73
2022/11/25 04:10:26;;;;;;;7.37;1.90;;;;;;;7.65;100.00;100862.56;5283639;28;20067;-73
2022/11/25 04:12:57;;;;;;;6.77;2.00;;;;;;;7.60;100.00;100858.22;5282302;28;20025;-73
2022/11/25 04:15:29;;;;;;;8.60;1.97;;;;;;;7.55;100.00;100853.06;5283494;28;20033;-73
2022/11/25 04:18:00;;;;;;;8.73;1.93;;;;;;;7.48;100.00;100859.09;5282010;28;20061;-73
2022/11/25 04:20:32;;;;;;;7.97;2.37;;;;;;;7.41;100.00;100860.81;5283700;28;20050;-73
2022/11/25 04:23:05;;;;;;;5.73;2.37;;;;;;;7.37;100.00;100861.66;5283169;28;20068;-73
2022/11/25 04:25:38;;;;;;;6.85;2.20;;;;;;;7.33;100.00;100866.84;5283259;28;20034;-73
2022/11/25 04:28:09;;;;;;;6.10;2.05;;;;;;;7.29;100.00;100876.34;5283426;28;20527;-73
2022/11/25 04:30:41;;;;;;;10.07;3.07;;;;;;;7.27;100.00;100884.09;5283412;28;20064;-71
2022/11/25 04:33:12;;;;;;;7.93;2.17;;;;;;;7.26;100.00;100887.59;5283870;28;20036;-72
2022/11/25 04:35:43;;;;;;;7.13;2.07;;;;;;;7.25;100.00;100893.63;5282403;28;20068;-72
2022/11/25 04:38:15;;;;;;;5.43;1.77;;;;;;;7.22;100.00;100892.75;5283206;28;20094;-73
2022/11/25 04:40:46;;;;;;;8.23;2.20;;;;;;;7.18;100.00;100899.66;5283286;28;20040;-73
2022/11/25 04:43:17;;;;;;;8.77;2.33;;;;;;;7.20;100.00;100904.84;5282109;28;20095;-73
2022/11/25 04:45:49;;;;;;;9.80;2.23;;;;;;;7.21;100.00;100906.56;5283032;28;20482;-73
2022/11/25 04:48:20;;;;;;;11.53;3.57;;;;;;;7.21;100.00;100910.03;5286790;28;20033;-73
2022/11/25 04:50:51;;;;;;;10.57;2.43;;;;;;;7.21;100.00;100911.75;5287790;28;20376;-73
2022/11/25 04:53:23;;;;;;;6.80;2.13;;;;;;;7.18;100.00;100904.84;5269198;28;20036;-74
2022/11/25 04:55:54;;;;;;;7.67;3.30;;;;;;;7.15;100.00;100899.66;5287485;28;20032;-72
2022/11/25 05:01:15;;;;;;;7.80;2.95;;;;;;;7.12;100.00;100915.19;5286593;28;20375;-72
2022/11/25 05:03:48;;;;;;;5.83;2.10;;;;;;;7.12;100.00;100920.38;5286695;28;20044;-72
2022/11/25 05:06:20;;;;;;;12.20;2.17;;;;;;;7.06;100.00;100920.34;5286973;28;20028;-73
2022/11/25 05:08:51;;;;;;;9.10;2.90;;;;;;;7.09;100.00;100935.91;5286974;28;20036;-72
2022/11/25 05:11:23;;;;;;;9.83;2.40;;;;;;;7.08;100.00;100924.69;5285714;28;20383;-72
2022/11/25 05:13:54;;;;;;;5.33;2.37;;;;;;;7.05;100.00;100923.78;5286683;28;20028;-72
2022/11/25 05:16:25;;;;;;;14.00;3.00;;;;;;;6.99;100.00;100929.81;5286770;28;20029;-73
2022/11/25 05:18:57;;;;;;;8.70;3.00;;;;;;;6.93;100.00;100929.78;5287082;28;20048;-73
2022/11/25 05:21:28;;;;;;;9.10;2.80;;;;;;;6.91;100.00;100927.19;5286029;28;20041;-73
2022/11/25 05:23:59;;;;;;;7.70;3.67;;;;;;;6.89;100.00;100917.66;5287168;28;20032;-73
2022/11/25 05:26:31;;;;;;;11.30;3.60;;;;;;;6.90;100.00;100922.00;5286645;28;20028;-73
2022/11/25 05:29:02;;;;;;;9.00;2.90;;;;;;;6.88;100.00;100927.19;5286248;28;20438;-73
2022/11/25 05:31:34;;;;;;;10.87;3.20;;;;;;;6.87;100.00;100927.16;5285902;28;20316;-73
2022/11/25 05:34:05;;;;;;;10.70;3.50;;;;;;;6.83;100.00;100923.72;5286423;28;20032;-73
2022/11/25 05:36:36;;;;;;;16.60;3.87;;;;;;;6.81;100.00;100928.03;5286997;28;20028;-74
2022/11/25 05:39:08;;;;;;;8.33;3.40;;;;;;;6.76;100.00;100932.28;5286139;28;20499;-74
2022/11/25 05:41:39;;;;;;;9.23;3.67;;;;;;;6.74;100.00;100929.69;5286622;28;20178;-72
2022/11/25 05:44:11;;;;;;;10.53;3.57;;;;;;;6.70;100.00;100938.31;5286530;28;20089;-72
2022/11/25 05:46:46;;;;;;;10.90;4.40;;;;;;;6.66;100.00;100931.38;5285949;28;20056;-72
2022/11/25 05:49:18;;;;;;;11.73;4.22;;;;;;;6.63;100.00;100946.91;5284899;28;20096;-72
2022/11/25 05:51:49;;;;;;;10.90;3.92;;;;;;;6.63;100.00;100952.06;5286905;28;20127;-72
2022/11/25 05:54:21;;;;;;;10.53;3.73;;;;;;;6.60;100.00;100954.69;5286062;28;20037;-72
2022/11/25 05:56:52;;;;;;;15.57;4.60;;;;;;;6.60;100.00;100953.78;5285724;28;20032;-73
2022/11/25 05:59:23;;;;;;;16.80;4.93;;;;;;;6.59;100.00;100954.66;5283603;28;20123;-73
2022/11/25 06:01:55;;;;;;;13.30;4.33;;;;;;;6.59;100.00;100965.03;5285674;28;20379;-73
2022/11/25 06:04:26;;;;;;;10.27;4.07;;;;;;;6.58;100.00;100956.38;5285640;28;20029;-73
2022/11/25 06:06:57;;;;;;;12.27;4.73;;;;;;;6.57;100.00;100954.66;5285793;28;20040;-73
2022/11/25 06:09:29;;;;;;;11.70;5.43;;;;;;;6.53;100.00;100956.34;5284996;28;20044;-73
2022/11/25 06:12:00;;;;;;;17.87;5.93;;;;;;;6.55;100.00;100966.72;5285686;28;20379;-73
2022/11/25 06:14:31;;;;;;;17.53;6.73;;;;;;;6.53;100.00;100960.66;5287009;28;20029;-73
2022/11/25 06:17:04;;;;;;;13.67;4.93;;;;;;;6.52;100.00;100961.50;5288222;28;20040;-73
2022/11/25 06:19:35;;;;;;;12.38;5.60;;;;;;;6.51;100.00;100970.16;5287272;28;20116;-72
2022/11/25 06:22:06;;;;;;;18.37;6.33;;;;;;;6.46;100.00;100974.44;5285689;28;20082;-73
2022/11/25 06:24:38;;;;;;;16.60;6.10;;;;;;;6.43;100.00;100984.78;5285284;28;20051;-72
2022/11/25 06:27:09;;;;;;;18.57;8.57;;;;;;;6.39;100.00;100982.16;5285705;28;20028;-73
2022/11/25 06:29:40;;;;;;;16.13;6.70;;;;;;;6.38;100.00;100980.41;5285792;28;20452;-72
2022/11/25 06:32:12;;;;;;;17.97;6.97;;;;;;;6.36;100.00;100991.63;5285376;28;20043;-72
2022/11/25 06:34:43;;;;;;;18.33;6.30;;;;;;;6.33;100.00;100991.59;5285369;28;20469;-73
2022/11/25 06:37:15;;;;;;;15.50;6.83;;;;;;;6.32;100.00;100993.31;5285369;28;20511;-73
2022/11/25 06:39:46;;;;;;;17.53;6.77;;;;;;;6.25;100.00;101003.59;5285687;28;20024;-73
2022/11/25 06:42:17;;;;;;;20.13;8.57;;;;;;;6.23;100.00;100998.44;5285370;28;20028;-73
2022/11/25 06:44:49;;;;;;;16.00;6.80;;;;;;;6.17;100.00;101001.81;5287500;28;20040;-73
2022/11/25 06:47:20;;;;;;;15.03;6.57;;;;;;;6.09;100.00;101011.25;5285374;28;20036;-74
2022/11/25 06:49:52;;;;;;;17.70;7.33;;;;;;;6.12;100.00;101013.00;5285331;28;20111;-73
2022/11/25 06:52:23;;;;;;;20.87;7.93;;;;;;;6.06;100.00;101008.63;5283229;28;20040;-73
2022/11/25 06:54:54;;;;;;;20.33;7.27;;;;;;;6.00;100.00;101011.13;5284482;28;20435;-73
2022/11/25 06:57:26;;;;;;;20.43;7.20;;;;;;;6.01;100.00;101013.75;5284547;28;20028;-73
2022/11/25 06:59:57;;;;;;;21.50;6.83;;;;;;;6.06;100.00;101018.97;5283272;28;20025;-73
2022/11/25 07:02:28;;;;;;;17.30;7.03;;;;;;;6.05;100.00;101017.22;5284583;28;20120;-73
2022/11/25 07:05:00;;;;;;;13.93;6.03;;;;;;;6.00;100.00;101024.94;5283289;28;20037;-73
2022/11/25 07:07:31;;;;;;;17.73;6.53;;;;;;;6.02;100.00;101022.38;5284355;28;20028;-73
2022/11/25 07:10:03;;;;;;;17.87;5.70;;;;;;;5.98;100.00;101024.06;5285188;28;20070;-73
2022/11/25 07:12:34;;;;;;;18.83;6.20;;;;;;;6.02;100.00;101035.31;5284472;28;20036;-73
2022/11/25 07:15:06;;;;;;;16.80;5.83;;;;;;;5.97;100.00;101032.69;5283564;28;20031;-74
2022/11/25 07:17:39;;;;;;;15.65;5.65;;;;;;;6.05;100.00;101043.09;5284953;28;20072;-71
2022/11/25 07:20:10;;;;;;;19.47;6.23;;;;;;;5.98;100.00;101044.75;5285294;28;20473;-73
2022/11/25 07:22:42;;;;;;;17.50;5.17;;;;;;;5.99;100.00;101049.09;5283048;28;20056;-71
2022/11/25 07:25:13;;;;;;;22.60;6.67;;;;;;;6.02;100.00;101054.31;5284601;28;20029;-71
2022/11/25 07:27:44;;;;;;;11.50;4.93;;;;;;;6.00;100.00;101063.75;5284579;28;20059;-72
2022/11/25 07:30:16;;;;;;;17.33;5.50;;;;;;;5.99;100.00;101059.44;5284000;28;20029;-74
2022/11/25 07:32:47;;;;;;;16.93;4.73;;;;;;;6.02;100.00;101068.94;5284033;28;20056;-71
2022/11/25 07:35:19;;;;;;;16.20;5.63;;;;;;;6.03;100.00;101065.53;5283850;28;20037;-72
2022/11/25 07:37:51;;;;;;;14.93;5.00;;;;;;;6.03;100.00;101078.47;5284277;28;20032;-72
2022/11/25 07:40:23;;;;;;;16.20;6.30;;;;;;;6.05;100.00;101081.91;5284505;28;20115;-72
2022/11/25 07:42:54;;;;;;;19.40;5.47;;;;;;;6.05;100.00;101089.69;5283463;28;20419;-73
2022/11/25 07:45:26;;;;;;;19.77;5.10;;;;;;;6.02;100.00;101093.13;5284610;28;20028;-73
2022/11/25 07:47:57;;;;;;;24.17;6.43;;;;;;;6.00;100.00;101099.97;5285036;28;20036;-73
2022/11/25 07:50:28;;;;;;;13.83;5.10;;;;;;;6.02;100.00;101108.66;5284599;28;20044;-73
2022/11/25 07:52:59;;;;;;;11.80;4.80;;;;;;;6.02;100.00;101115.53;5284388;28;20361;-73
2022/11/25 07:55:31;;;;;;;14.10;5.17;;;;;;;6.05;100.00;101120.75;5284413;28;20484;-73
2022/11/25 07:58:02;;;;;;;17.43;5.73;;;;;;;6.12;100.00;101124.28;5284255;28;20464;-73
2022/11/25 08:00:33;;;;;;;20.33;7.57;;;;;;;6.14;100.00;101120.84;5284674;28;20111;-73
2022/11/25 08:03:05;;;;;;;12.43;5.47;;;;;;;6.17;100.00;101123.47;5284137;28;20028;-73
2022/11/25 08:05:36;;;;;;;12.53;4.97;;;;;;;6.27;100.00;101134.78;5284348;28;20045;-73
2022/11/25 08:08:08;;;;;;;15.70;5.17;;;;;;;6.31;100.00;101140.88;5283156;28;20033;-73
2022/11/25 08:10:39;;;;;;;15.70;5.23;;;;;;;6.34;100.00;101143.50;5283641;28;20162;-73
2022/11/25 08:13:11;;;;;;;23.13;5.60;;;;;;;6.37;100.00;101139.19;5283639;28;20036;-71
2022/11/25 08:15:42;;;;;;;14.40;5.33;;;;;;;6.37;100.00;101141.78;5283908;28;20035;-71
2022/11/25 08:18:14;;;;;;;17.17;4.80;;;;;;;6.44;100.00;101147.03;5283765;28;20113;-72
2022/11/25 08:20:45;;;;;;;11.10;4.10;;;;;;;6.50;100.00;101171.28;5284437;28;20029;-72
2022/11/25 08:23:16;;;;;;;9.00;4.37;;;;;;;6.56;100.00;101160.97;5283541;28;20157;-72
2022/11/25 08:25:48;;;;;;;14.37;4.13;;;;;;;6.66;100.00;101168.84;5266042;28;20102;-72
2022/11/25 08:28:19;;;;;;;21.23;5.83;;;;;;;6.74;100.00;101168.03;5283748;28;20035;-73
2022/11/25 08:30:50;;;;;;;10.80;3.37;;;;;;;6.85;100.00;101169.88;5284147;28;20075;-72
2022/11/25 08:33:22;;;;;;;9.13;3.97;;;;;;;7.01;100.00;101176.06;5284176;28;20112;-72
2022/11/25 08:35:54;;;;;;;13.03;5.13;;;;;;;7.14;100.00;101172.72;5282458;28;20024;-72
2022/11/25 08:38:26;;;;;;;16.00;4.20;;;;;;;7.28;100.00;101175.41;5283787;28;20037;-73
2022/11/25 08:40:58;;;;;;;17.60;4.10;;;;;;;7.42;100.00;101167.72;5283579;28;20262;-73
2022/11/25 08:43:29;;;;;;;13.03;4.50;;;;;;;7.52;100.00;101173.81;5282276;28;20046;-73
2022/11/25 08:46:07;;;;;;;10.43;3.93;;;;;;;7.70;100.00;101180.88;5283441;28;20036;-72
2022/11/25 08:48:39;;;;;;;10.95;4.25;;;;;;;7.72;100.00;101176.53;5283613;28;20025;-71
2022/11/25 08:51:17;;;;;;;11.20;3.47;;;;;;;7.90;100.00;101179.22;5282187;28;20036;-72
2022/11/25 08:53:52;;;;;;;12.38;3.75;;;;;;;8.02;100.00;101176.69;5283675;28;20029;-72
2022/11/25 08:56:24;;;;;;;9.80;3.28;;;;;;;8.10;100.00;101188.81;5283829;28;20086;-72
2022/11/25 08:58:56;;;;;;;11.80;3.85;;;;;;;8.19;100.00;101186.25;5281790;28;20051;-72
2022/11/25 09:01:27;;;;;;;8.70;3.63;;;;;;;8.35;100.00;101184.56;5283666;28;20036;-72
2022/11/25 09:03:59;;;;;;;10.03;3.70;;;;;;;8.41;100.00;101187.19;5283277;28;20035;-72
2022/11/25 09:06:31;;;;;;;9.15;3.63;;;;;;;8.59;100.00;101194.19;5283204;28;20108;-73
2022/11/25 09:09:04;;;;;;;12.30;3.73;;;;;;;8.66;100.00;101202.88;5282857;28;20488;-72
2022/11/25 09:11:36;;;;;;;9.63;3.88;;;;;;;8.91;100.00;101204.63;5281729;28;20060;-72
2022/11/25 09:14:07;;;;;;;12.50;4.13;;;;;;;8.93;100.00;101209.84;5283024;28;20056;-72
2022/11/25 09:16:38;;;;;;;12.60;4.40;;;;;;;9.21;100.00;101215.94;5283123;28;20043;-73
2022/11/25 09:19:10;;;;;;;10.23;3.50;;;;;;;9.33;100.00;101217.66;5283166;28;20048;-72
2022/11/25 09:21:44;;;;;;;13.50;3.50;;;;;;;9.36;100.00;101220.25;5282890;28;20514;-72
2022/11/25 09:24:16;;;;;;;11.60;3.60;;;;;;;9.42;98.90;101229.78;5283116;28;20032;-72
2022/11/25 09:26:48;;;;;;;15.00;4.23;;;;;;;9.57;98.64;101228.91;5281857;28;20033;-72
2022/11/25 09:29:19;;;;;;;8.98;3.88;;;;;;;9.68;97.38;101229.75;5283127;28;20063;-72
2022/11/25 09:31:51;;;;;;;8.80;3.47;;;;;;;9.92;96.00;101236.63;5283361;28;20068;-72
2022/11/25 09:34:22;;;;;;;13.37;4.00;;;;;;;9.95;95.35;101230.53;5285915;28;20025;-72
2022/11/25 09:36:53;;;;;;;10.47;3.70;;;;;;;9.95;95.33;101246.16;5286806;28;20029;-71
2022/11/25 09:39:28;;;;;;;10.47;3.80;;;;;;;10.13;94.98;101242.66;5286571;28;20020;-72
2022/11/25 09:48:16;;;;;;;10.20;4.03;;;;;;;10.53;90.78;101260.75;5286561;28;20040;-73
2022/11/25 09:50:54;;;;;;;13.02;3.65;;;;;;;10.56;90.98;101266.81;5286477;28;20082;-72
2022/11/25 09:53:47;;;;;;;10.68;3.75;;;;;;;10.90;90.17;101268.34;5287200;28;20028;-72
2022/11/25 09:56:28;;;;;;;11.25;3.60;;;;;;;10.74;88.68;101263.25;5289193;28;20028;-73
2022/11/25 09:59:26;;;;;;;11.95;3.95;;;;;;;11.26;88.68;101268.97;5286831;28;20391;-73
2022/11/25 10:02:01;;;;;;;13.43;4.10;;;;;;;11.46;88.13;101268.81;5284944;28;20032;-73
2022/11/25 10:04:39;;;;;;;9.98;3.75;;;;;;;11.61;84.97;101276.50;5286046;28;20083;-73
2022/11/25 10:07:20;;;;;;;13.10;4.18;;;;;;;12.02;84.16;101274.38;5286275;28;20032;-72
2022/11/25 10:09:51;;;;;;;10.70;3.75;;;;;;;12.04;82.26;101283.94;5286075;28;20035;-73
2022/11/25 10:12:26;;;;;;;12.68;3.13;;;;;;;12.08;81.10;101286.53;5286228;28;20029;-73
2022/11/25 10:15:12;;;;;;;12.50;3.60;;;;;;;12.28;79.92;101288.91;5284517;28;20031;-73
2022/11/25 10:17:49;;;;;;;9.75;3.20;;;;;;;12.35;78.97;101290.59;5286266;28;20028;-73
2022/11/25 10:20:27;;;;;;;9.50;3.83;;;;;;;12.53;79.08;101295.56;5284733;28;20032;-73
2022/11/25 10:23:23;;;;;;;13.77;4.00;;;;;;;12.51;78.65;101313.03;5285818;28;20028;-73
2022/11/25 10:26:01;;;;;;;11.80;3.97;;;;;;;12.50;76.18;101321.75;5284377;28;20097;-73
2022/11/25 10:28:35;;;;;;;11.13;4.22;;;;;;;12.86;76.85;101326.53;5286285;28;20032;-73
2022/11/25 10:31:41;;;;;;;9.45;3.92;;;;;;;12.62;76.09;101320.72;5286344;28;20028;-73
2022/11/25 10:34:50;;;;;;;10.45;3.55;;;;;;;12.73;75.69;101331.91;5285049;28;20136;-73
2022/11/25 10:37:44;;;;;;;11.70;4.10;;;;;;;12.72;75.30;101332.81;5285346;28;20387;-73
2022/11/25 10:40:16;;;;;;;13.27;4.10;;;;;;;12.77;73.02;101327.53;5286714;28;20032;-73
2022/11/25 10:42:48;;;;;;;10.88;4.47;;;;;;;12.69;73.52;101337.22;5285437;28;20040;-74
2022/11/25 10:45:27;;;;;;;7.23;2.70;;;;;;;13.10;71.87;101344.50;5284739;28;20028;-72
2022/11/25 10:48:12;;;;;;;13.40;3.97;;;;;;;13.26;71.25;101331.19;5286191;28;20036;-73
2022/11/25 10:51:33;;;;;;;8.77;3.47;;;;;;;13.83;72.26;101346.03;5285858;28;20355;-72
2022/11/25 10:54:07;;;;;;;10.52;3.92;;;;;;;13.28;70.51;101347.72;5220706;28;20038;-73
2022/11/25 10:56:44;;;;;;;11.88;3.75;;;;;;;13.93;68.67;101352.84;5220649;28;20133;-73
2022/11/25 10:59:36;;;;;;;11.52;4.10;;;;;;;14.29;69.41;101355.66;5264596;28;20094;-73
2022/11/25 11:02:27;;;;;;;11.70;3.72;;;;;;;14.74;67.38;101354.81;5285050;28;20115;-73
2022/11/25 11:05:13;;;;;;;7.45;3.08;;;;;;;14.97;64.56;101363.94;5285886;28;20063;-72
2022/11/25 11:07:45;;;;;;;12.13;3.45;;;;;;;14.62;65.05;101358.56;5285935;28;20028;-72
2022/11/25 11:10:22;;;;;;;11.80;3.90;;;;;;;14.61;64.40;101362.06;5289557;28;20064;-73
2022/11/25 11:12:58;;;;;;;12.20;3.72;;;;;;;14.59;64.28;101367.34;5286428;28;20031;-73
2022/11/25 11:15:46;;;;;;;8.77;3.90;;;;;;;14.80;63.39;101366.94;5284411;28;20028;-73
2022/11/25 11:18:38;;;;;;;11.40;3.88;;;;;;;15.44;63.15;101364.63;5284958;28;20098;-73
2022/11/25 11:21:21;;;;;;;9.48;4.07;;;;;;;15.24;62.73;101380.84;5285373;28;20475;-73
2022/11/25 11:23:54;;;;;;;11.20;3.90;;;;;;;15.85;60.11;101374.16;5284987;28;20036;-73
2022/11/25 11:26:25;;;;;;;10.63;3.47;;;;;;;16.35;58.09;101392.13;5284635;28;20036;-73
2022/11/25 11:29:03;;;;;;;7.77;2.60;;;;;;;16.58;56.94;101383.63;5284926;28;20463;-72
2022/11/25 11:31:38;;;;;;;13.27;3.60;;;;;;;16.85;55.85;101385.50;5284712;28;20517;-73
2022/11/25 11:34:48;;;;;;;9.30;2.65;;;;;;;16.70;55.98;101392.94;5284152;28;20024;-73
2022/11/25 11:37:55;;;;;;;8.77;3.03;;;;;;;15.99;56.26;101399.25;5283047;28;20029;-73
2022/11/25 11:40:29;;;;;;;9.43;3.53;;;;;;;15.64;57.41;101400.94;5219725;28;20072;-73
2022/11/25 11:43:19;;;;;;;11.90;3.80;;;;;;;16.58;56.32;101404.69;5274917;28;20165;-73
2022/11/25 11:46:10;;;;;;;7.25;3.17;;;;;;;16.10;55.80;101413.00;5284633;28;20372;-74
2022/11/25 11:48:56;;;;;;;9.13;2.90;;;;;;;16.88;54.34;101415.25;5284396;28;20391;-73
2022/11/25 11:51:43;;;;;;;13.20;3.75;;;;;;;17.05;52.48;101413.88;5284642;28;20037;-74
2022/11/25 11:54:19;;;;;;;6.28;2.60;;;;;;;16.14;54.32;101414.63;5283956;28;20032;-73
2022/11/25 11:57:03;;;;;;;7.47;2.60;;;;;;;15.38;55.70;101412.94;5283349;28;20076;-74
2022/11/25 11:59:51;;;;;;;9.50;3.10;;;;;;;15.96;55.60;101415.97;5284152;28;20044;-73
2022/11/25 12:02:31;;;;;;;9.15;3.10;;;;;;;16.18;54.51;101407.50;5283695;28;20032;-73
2022/11/25 12:05:09;;;;;;;8.68;3.05;;;;;;;16.61;53.49;101422.13;5283935;28;20060;-73